Cruz Bay, VI

11:14 AM AST on September 18, 2014 (GMT -0400)
Henry E Rohlsen | Change Station
CLOSE
Current Station
Airport
Location: St. Croix,
Elevation: 56 ft
Nearby Weather Stations

Elev 56 ft 17.70 °N, 64.81 °W | Updated 21 minutes ago

Scattered Clouds
Scattered Clouds
87 °F
Feels Like 100 °F
N
9
Wind Variable Wind from East
Gusts 17 mph

Today
High -- | Low -- °F
--% Chance of Precip.
Yesterday
High -- | Low -- °F
Precip. -- in
6:07 AM 6:18 PM
Waning Crescent, 26% visible
Pressure 29.99 in
Visibility 10.0 miles
Clouds Scattered Clouds 2000 ft
Heat Index 100 °F
Dew Point 78 °F
Humidity 74%
Rainfall 0.00 in
Snow Depth Not available.
UV 8 out of 12
Pollen Not available.
Air Quality Not available.
Flu Activity Not available.
METAR TISX 181453Z 10008G15KT 10SM SCT020 31/26 A2999 RMK AO2 SLP154 60000 T03060256 51002

More Conditions Fewer Conditions

Pressure 29.99 in
Visibility 10.0 miles
Clouds Scattered Clouds 2000 ft
Heat Index 100 °F
Dew Point 78 °F
Humidity 74%
Rainfall 0.00 in
Snow Depth Not available.
UV 8 out of 12
Pollen Not available.
Air Quality Not available.
Flu Activity Not available.
METAR TISX 181453Z 10008G15KT 10SM SCT020 31/26 A2999 RMK AO2 SLP154 60000 T03060256 51002

More Conditions Fewer Conditions

10-Day Weather Forecast

Almanac

Astronomy

Sep. 18, 2014 Rise Set
Actual Time 6:07 AM AST 6:18 PM AST
Civil Twilight 5:45 AM AST 6:40 PM AST
Nautical Twilight 5:20 AM AST 7:06 PM AST
Astronomical Twilight 4:54 AM AST 7:31 PM AST
Moon 1:28 AM AST 2:37 PM AST
Length of Visible Light 12h 55m
Length of Day
12h 11m
Tomorrow will be 1m 1s shorter.
Waning Crescent, 26% of the Moon is Illuminated
Today
Waning Crescent
Sep 24
New
Oct 1
First Quarter
Oct 8
Full
Oct 15
Last Quarter

Community

WunderPhotos

Upload Photos

1,754,368 photos uploaded!

Nearby

Snow Depth

Station Depth Elevation
No new snow has been reported.

Earthquake Activity

City Distance Mag. Time & Date
No recent earthquake activity has been reported nearby.
Minimum magnitude displayed is 2.5.

Coastal Water Temperatures

Place Temperature
Yabucoa Harbor, PR 84.9 °F
Esperanza, PR 86.0 °F
Charlotte Amalie, VI 86.0 °F

Nearby Weather Stations